sensor_id;sensor_type;location;lat;lon;timestamp;temperature;humidity
9118;DHT22;4594;50.994;7.126;2023-02-28T00:01:22;1.60;26.70
9118;DHT22;4594;50.994;7.126;2023-02-28T00:03:49;1.60;26.70
9118;DHT22;4594;50.994;7.126;2023-02-28T00:06:15;1.50;26.70
9118;DHT22;4594;50.994;7.126;2023-02-28T00:08:40;1.50;26.70
9118;DHT22;4594;50.994;7.126;2023-02-28T00:11:11;1.60;26.80
9118;DHT22;4594;50.994;7.126;2023-02-28T00:13:40;1.50;26.80
9118;DHT22;4594;50.994;7.126;2023-02-28T00:16:11;1.50;26.70
9118;DHT22;4594;50.994;7.126;2023-02-28T00:18:38;1.50;26.80
9118;DHT22;4594;50.994;7.126;2023-02-28T00:21:05;1.50;26.70
9118;DHT22;4594;50.994;7.126;2023-02-28T00:23:31;1.50;26.70
9118;DHT22;4594;50.994;7.126;2023-02-28T00:25:56;1.60;26.80
9118;DHT22;4594;50.994;7.126;2023-02-28T00:28:22;1.60;26.80
9118;DHT22;4594;50.994;7.126;2023-02-28T00:30:49;1.60;26.80
9118;DHT22;4594;50.994;7.126;2023-02-28T00:33:15;1.70;26.90
9118;DHT22;4594;50.994;7.126;2023-02-28T00:35:41;1.70;26.90
9118;DHT22;4594;50.994;7.126;2023-02-28T00:38:08;1.70;26.90
9118;DHT22;4594;50.994;7.126;2023-02-28T00:40:33;1.70;26.90
9118;DHT22;4594;50.994;7.126;2023-02-28T00:42:59;1.80;26.90
9118;DHT22;4594;50.994;7.126;2023-02-28T00:45:24;1.80;26.90
9118;DHT22;4594;50.994;7.126;2023-02-28T00:47:50;1.80;26.90
9118;DHT22;4594;50.994;7.126;2023-02-28T01:27:43;2.00;27.00
9118;DHT22;4594;50.994;7.126;2023-02-28T01:30:09;2.00;27.00
9118;DHT22;4594;50.994;7.126;2023-02-28T01:32:36;2.00;27.00
9118;DHT22;4594;50.994;7.126;2023-02-28T01:35:01;2.00;27.00
9118;DHT22;4594;50.994;7.126;2023-02-28T01:37:27;2.00;27.00
9118;DHT22;4594;50.994;7.126;2023-02-28T01:39:53;1.90;26.90
9118;DHT22;4594;50.994;7.126;2023-02-28T01:42:19;2.00;27.00
9118;DHT22;4594;50.994;7.126;2023-02-28T01:47:36;2.00;27.10
9118;DHT22;4594;50.994;7.126;2023-02-28T01:50:11;1.90;26.90
9118;DHT22;4594;50.994;7.126;2023-02-28T01:52:42;1.90;26.90
9118;DHT22;4594;50.994;7.126;2023-02-28T01:55:10;1.90;26.90
9118;DHT22;4594;50.994;7.126;2023-02-28T01:57:43;1.90;27.00
9118;DHT22;4594;50.994;7.126;2023-02-28T02:00:14;1.90;27.10
9118;DHT22;4594;50.994;7.126;2023-02-28T02:02:46;1.90;27.00
9118;DHT22;4594;50.994;7.126;2023-02-28T02:05:20;1.90;27.00
9118;DHT22;4594;50.994;7.126;2023-02-28T02:07:50;1.90;27.00
9118;DHT22;4594;50.994;7.126;2023-02-28T02:10:22;1.90;27.00
9118;DHT22;4594;50.994;7.126;2023-02-28T02:15:46;1.80;27.00
9118;DHT22;4594;50.994;7.126;2023-02-28T02:18:46;1.80;26.90
9118;DHT22;4594;50.994;7.126;2023-02-28T02:30:58;1.70;26.90
9118;DHT22;4594;50.994;7.126;2023-02-28T02:37:08;1.70;26.90
9118;DHT22;4594;50.994;7.126;2023-02-28T02:40:23;1.70;26.90
9118;DHT22;4594;50.994;7.126;2023-02-28T02:43:19;1.70;26.80
9118;DHT22;4594;50.994;7.126;2023-02-28T02:46:00;1.70;26.80
9118;DHT22;4594;50.994;7.126;2023-02-28T02:48:33;1.70;26.70
9118;DHT22;4594;50.994;7.126;2023-02-28T02:51:05;1.70;26.70
9118;DHT22;4594;50.994;7.126;2023-02-28T02:53:42;1.70;26.70
9118;DHT22;4594;50.994;7.126;2023-02-28T02:56:16;1.70;26.70
9118;DHT22;4594;50.994;7.126;2023-02-28T02:58:47;1.70;26.60
9118;DHT22;4594;50.994;7.126;2023-02-28T03:01:19;1.70;26.70
9118;DHT22;4594;50.994;7.126;2023-02-28T03:03:57;1.80;26.70
9118;DHT22;4594;50.994;7.126;2023-02-28T03:06:26;1.80;26.70
9118;DHT22;4594;50.994;7.126;2023-02-28T03:08:53;1.80;26.70
9118;DHT22;4594;50.994;7.126;2023-02-28T03:11:19;1.80;26.70
9118;DHT22;4594;50.994;7.126;2023-02-28T03:25:49;1.70;26.60
9118;DHT22;4594;50.994;7.126;2023-02-28T03:28:42;1.80;26.70
9118;DHT22;4594;50.994;7.126;2023-02-28T03:31:38;1.70;26.60
9118;DHT22;4594;50.994;7.126;2023-02-28T03:34:10;1.70;26.60
9118;DHT22;4594;50.994;7.126;2023-02-28T03:36:53;1.70;26.60
9118;DHT22;4594;50.994;7.126;2023-02-28T03:39:36;1.60;26.60
9118;DHT22;4594;50.994;7.126;2023-02-28T03:42:10;1.70;26.60
9118;DHT22;4594;50.994;7.126;2023-02-28T03:44:43;1.60;26.50
9118;DHT22;4594;50.994;7.126;2023-02-28T03:47:17;1.60;26.50
9118;DHT22;4594;50.994;7.126;2023-02-28T03:50:37;1.60;26.60
9118;DHT22;4594;50.994;7.126;2023-02-28T03:53:33;1.60;26.70
9118;DHT22;4594;50.994;7.126;2023-02-28T03:56:18;1.60;26.60
9118;DHT22;4594;50.994;7.126;2023-02-28T03:59:06;1.60;26.60
9118;DHT22;4594;50.994;7.126;2023-02-28T04:01:41;1.60;26.80
9118;DHT22;4594;50.994;7.126;2023-02-28T04:04:10;1.60;26.70
9118;DHT22;4594;50.994;7.126;2023-02-28T04:06:37;1.50;26.60
9118;DHT22;4594;50.994;7.126;2023-02-28T04:09:05;1.50;26.70
9118;DHT22;4594;50.994;7.126;2023-02-28T04:11:38;1.50;26.70
9118;DHT22;4594;50.994;7.126;2023-02-28T04:14:11;1.50;26.80
9118;DHT22;4594;50.994;7.126;2023-02-28T04:16:39;1.50;26.80
9118;DHT22;4594;50.994;7.126;2023-02-28T04:19:08;1.50;26.80
9118;DHT22;4594;50.994;7.126;2023-02-28T04:21:37;1.50;26.80
9118;DHT22;4594;50.994;7.126;2023-02-28T04:24:06;1.50;26.80
9118;DHT22;4594;50.994;7.126;2023-02-28T04:26:34;1.50;26.80
9118;DHT22;4594;50.994;7.126;2023-02-28T04:29:03;1.50;26.80
9118;DHT22;4594;50.994;7.126;2023-02-28T04:31:30;1.50;26.80
9118;DHT22;4594;50.994;7.126;2023-02-28T04:33:56;1.50;26.90
9118;DHT22;4594;50.994;7.126;2023-02-28T04:36:22;1.50;26.80
9118;DHT22;4594;50.994;7.126;2023-02-28T04:38:49;1.50;26.90
9118;DHT22;4594;50.994;7.126;2023-02-28T04:41:15;1.50;26.90
9118;DHT22;4594;50.994;7.126;2023-02-28T04:43:42;1.50;26.90
9118;DHT22;4594;50.994;7.126;2023-02-28T04:46:08;1.50;26.80
9118;DHT22;4594;50.994;7.126;2023-02-28T04:48:37;1.50;26.80
9118;DHT22;4594;50.994;7.126;2023-02-28T04:51:07;1.50;26.90
9118;DHT22;4594;50.994;7.126;2023-02-28T04:53:35;1.40;26.80
9118;DHT22;4594;50.994;7.126;2023-02-28T04:56:02;1.40;26.80
9118;DHT22;4594;50.994;7.126;2023-02-28T04:58:28;1.40;26.80
9118;DHT22;4594;50.994;7.126;2023-02-28T05:01:02;1.40;26.80
9118;DHT22;4594;50.994;7.126;2023-02-28T05:03:41;1.40;26.80
9118;DHT22;4594;50.994;7.126;2023-02-28T05:06:08;1.40;26.80
9118;DHT22;4594;50.994;7.126;2023-02-28T05:08:35;1.40;26.70
9118;DHT22;4594;50.994;7.126;2023-02-28T05:11:02;1.40;26.70
9118;DHT22;4594;50.994;7.126;2023-02-28T05:13:29;1.40;26.80
9118;DHT22;4594;50.994;7.126;2023-02-28T05:15:55;1.40;26.80
9118;DHT22;4594;50.994;7.126;2023-02-28T05:18:21;1.40;26.80
9118;DHT22;4594;50.994;7.126;2023-02-28T05:20:47;1.40;26.80
9118;DHT22;4594;50.994;7.126;2023-02-28T05:23:14;1.40;26.80
9118;DHT22;4594;50.994;7.126;2023-02-28T05:25:41;1.40;26.80
9118;DHT22;4594;50.994;7.126;2023-02-28T05:28:07;1.40;26.80
9118;DHT22;4594;50.994;7.126;2023-02-28T05:30:33;1.40;26.70
9118;DHT22;4594;50.994;7.126;2023-02-28T05:32:59;1.40;26.70
9118;DHT22;4594;50.994;7.126;2023-02-28T05:35:25;1.40;26.80
9118;DHT22;4594;50.994;7.126;2023-02-28T05:37:51;1.40;26.80
9118;DHT22;4594;50.994;7.126;2023-02-28T05:40:17;1.40;26.80
9118;DHT22;4594;50.994;7.126;2023-02-28T05:42:45;1.30;26.70
9118;DHT22;4594;50.994;7.126;2023-02-28T05:45:12;1.30;26.70
9118;DHT22;4594;50.994;7.126;2023-02-28T05:47:38;1.40;26.80
9118;DHT22;4594;50.994;7.126;2023-02-28T05:50:04;1.30;26.70
9118;DHT22;4594;50.994;7.126;2023-02-28T05:52:31;1.30;26.70
9118;DHT22;4594;50.994;7.126;2023-02-28T05:54:57;1.30;26.70
9118;DHT22;4594;50.994;7.126;2023-02-28T05:57:23;1.30;26.70
9118;DHT22;4594;50.994;7.126;2023-02-28T05:59:49;1.20;26.60
9118;DHT22;4594;50.994;7.126;2023-02-28T06:02:16;1.20;26.60
9118;DHT22;4594;50.994;7.126;2023-02-28T06:04:43;1.20;26.60
9118;DHT22;4594;50.994;7.126;2023-02-28T06:07:10;1.20;26.70
9118;DHT22;4594;50.994;7.126;2023-02-28T06:09:36;1.30;26.80
9118;DHT22;4594;50.994;7.126;2023-02-28T06:12:04;1.30;26.80
9118;DHT22;4594;50.994;7.126;2023-02-28T06:14:33;1.30;26.80
9118;DHT22;4594;50.994;7.126;2023-02-28T06:16:59;1.40;26.90
9118;DHT22;4594;50.994;7.126;2023-02-28T06:19:26;1.40;26.90
9118;DHT22;4594;50.994;7.126;2023-02-28T06:21:54;1.40;26.80
9118;DHT22;4594;50.994;7.126;2023-02-28T06:24:24;1.40;26.80
9118;DHT22;4594;50.994;7.126;2023-02-28T06:26:53;1.40;26.80
9118;DHT22;4594;50.994;7.126;2023-02-28T06:29:19;1.40;26.80
9118;DHT22;4594;50.994;7.126;2023-02-28T06:31:45;1.50;26.80
9118;DHT22;4594;50.994;7.126;2023-02-28T06:34:12;1.50;26.80
9118;DHT22;4594;50.994;7.126;2023-02-28T06:36:40;1.50;26.80
9118;DHT22;4594;50.994;7.126;2023-02-28T06:39:07;1.50;26.80
9118;DHT22;4594;50.994;7.126;2023-02-28T06:41:34;1.50;26.80
9118;DHT22;4594;50.994;7.126;2023-02-28T06:44:11;1.50;26.80
9118;DHT22;4594;50.994;7.126;2023-02-28T06:46:39;1.50;27.10
9118;DHT22;4594;50.994;7.126;2023-02-28T06:49:06;1.50;26.90
9118;DHT22;4594;50.994;7.126;2023-02-28T06:51:35;1.60;27.10
9118;DHT22;4594;50.994;7.126;2023-02-28T06:54:02;1.80;27.30
9118;DHT22;4594;50.994;7.126;2023-02-28T06:56:28;2.00;27.50
9118;DHT22;4594;50.994;7.126;2023-02-28T06:58:54;2.30;27.80
9118;DHT22;4594;50.994;7.126;2023-02-28T07:01:20;2.60;28.20
9118;DHT22;4594;50.994;7.126;2023-02-28T07:03:48;3.00;28.10
9118;DHT22;4594;50.994;7.126;2023-02-28T07:06:20;3.40;28.30
9118;DHT22;4594;50.994;7.126;2023-02-28T07:08:48;3.80;28.50
9118;DHT22;4594;50.994;7.126;2023-02-28T07:11:14;4.20;28.60
9118;DHT22;4594;50.994;7.126;2023-02-28T07:13:40;4.60;28.60
9118;DHT22;4594;50.994;7.126;2023-02-28T07:16:09;5.00;28.70
9118;DHT22;4594;50.994;7.126;2023-02-28T07:18:36;5.40;28.80
9118;DHT22;4594;50.994;7.126;2023-02-28T07:21:04;5.80;29.00
9118;DHT22;4594;50.994;7.126;2023-02-28T07:23:32;6.30;29.00
9118;DHT22;4594;50.994;7.126;2023-02-28T07:25:57;6.70;29.00
9118;DHT22;4594;50.994;7.126;2023-02-28T07:28:24;7.00;29.00
9118;DHT22;4594;50.994;7.126;2023-02-28T07:30:50;7.40;29.00
9118;DHT22;4594;50.994;7.126;2023-02-28T07:33:16;7.80;29.20
9118;DHT22;4594;50.994;7.126;2023-02-28T07:35:42;8.20;29.20
9118;DHT22;4594;50.994;7.126;2023-02-28T07:38:08;8.50;29.20
9118;DHT22;4594;50.994;7.126;2023-02-28T07:40:34;8.90;29.30
9118;DHT22;4594;50.994;7.126;2023-02-28T07:43:01;9.20;29.30
9118;DHT22;4594;50.994;7.126;2023-02-28T07:45:29;9.50;29.30
9118;DHT22;4594;50.994;7.126;2023-02-28T07:47:55;9.80;29.40
9118;DHT22;4594;50.994;7.126;2023-02-28T07:50:21;10.10;28.50
9118;DHT22;4594;50.994;7.126;2023-02-28T07:52:47;10.40;28.60
9118;DHT22;4594;50.994;7.126;2023-02-28T07:55:13;10.60;28.60
9118;DHT22;4594;50.994;7.126;2023-02-28T07:57:40;10.90;28.50
9118;DHT22;4594;50.994;7.126;2023-02-28T08:00:08;11.10;28.50
9118;DHT22;4594;50.994;7.126;2023-02-28T08:02:36;11.40;28.20
9118;DHT22;4594;50.994;7.126;2023-02-28T08:05:01;11.60;28.20
9118;DHT22;4594;50.994;7.126;2023-02-28T08:07:27;11.80;28.30
9118;DHT22;4594;50.994;7.126;2023-02-28T08:09:53;12.00;28.40
9118;DHT22;4594;50.994;7.126;2023-02-28T08:12:19;12.20;28.20
9118;DHT22;4594;50.994;7.126;2023-02-28T08:14:45;12.30;28.30
9118;DHT22;4594;50.994;7.126;2023-02-28T08:17:11;12.40;28.10
9118;DHT22;4594;50.994;7.126;2023-02-28T08:19:37;12.50;28.20
9118;DHT22;4594;50.994;7.126;2023-02-28T08:22:03;12.60;28.10
9118;DHT22;4594;50.994;7.126;2023-02-28T08:24:29;12.80;28.40
9118;DHT22;4594;50.994;7.126;2023-02-28T08:26:55;13.00;28.40
9118;DHT22;4594;50.994;7.126;2023-02-28T08:29:21;13.30;28.60
9118;DHT22;4594;50.994;7.126;2023-02-28T08:31:47;13.50;28.40
9118;DHT22;4594;50.994;7.126;2023-02-28T08:34:15;13.80;28.60
9118;DHT22;4594;50.994;7.126;2023-02-28T08:36:41;14.00;28.70
9118;DHT22;4594;50.994;7.126;2023-02-28T08:39:09;14.50;29.10
9118;DHT22;4594;50.994;7.126;2023-02-28T08:41:36;14.90;29.10
9118;DHT22;4594;50.994;7.126;2023-02-28T08:44:03;15.30;29.30
9118;DHT22;4594;50.994;7.126;2023-02-28T08:46:29;15.70;29.40
9118;DHT22;4594;50.994;7.126;2023-02-28T08:48:56;16.10;29.40
9118;DHT22;4594;50.994;7.126;2023-02-28T08:51:27;16.50;29.20
9118;DHT22;4594;50.994;7.126;2023-02-28T08:53:55;16.80;28.50
9118;DHT22;4594;50.994;7.126;2023-02-28T08:56:23;17.00;28.80
9118;DHT22;4594;50.994;7.126;2023-02-28T08:58:50;17.30;29.00
9118;DHT22;4594;50.994;7.126;2023-02-28T09:01:18;17.60;29.10
9118;DHT22;4594;50.994;7.126;2023-02-28T09:03:48;17.90;28.90
9118;DHT22;4594;50.994;7.126;2023-02-28T09:06:16;18.10;28.50
9118;DHT22;4594;50.994;7.126;2023-02-28T09:08:43;18.30;28.60
9118;DHT22;4594;50.994;7.126;2023-02-28T09:11:10;18.40;28.60
9118;DHT22;4594;50.994;7.126;2023-02-28T09:13:37;18.60;28.70
9118;DHT22;4594;50.994;7.126;2023-02-28T09:16:05;18.80;28.80
9118;DHT22;4594;50.994;7.126;2023-02-28T09:18:34;19.00;28.00
9118;DHT22;4594;50.994;7.126;2023-02-28T09:21:05;19.10;28.00
9118;DHT22;4594;50.994;7.126;2023-02-28T09:23:32;19.20;28.20
9118;DHT22;4594;50.994;7.126;2023-02-28T09:25:58;19.20;27.10
9118;DHT22;4594;50.994;7.126;2023-02-28T09:28:23;19.00;27.30
9118;DHT22;4594;50.994;7.126;2023-02-28T09:30:51;19.00;27.40
9118;DHT22;4594;50.994;7.126;2023-02-28T09:33:19;19.00;27.40
9118;DHT22;4594;50.994;7.126;2023-02-28T09:35:49;18.90;27.40
9118;DHT22;4594;50.994;7.126;2023-02-28T09:38:17;18.80;26.90
9118;DHT22;4594;50.994;7.126;2023-02-28T09:40:52;18.90;26.90
9118;DHT22;4594;50.994;7.126;2023-02-28T09:43:23;18.90;26.90
9118;DHT22;4594;50.994;7.126;2023-02-28T09:48:53;18.90;26.50
9118;DHT22;4594;50.994;7.126;2023-02-28T09:51:36;18.90;27.00
9118;DHT22;4594;50.994;7.126;2023-02-28T09:54:05;18.90;26.30
9118;DHT22;4594;50.994;7.126;2023-02-28T09:56:36;18.90;26.70
9118;DHT22;4594;50.994;7.126;2023-02-28T10:02:01;19.00;26.80
9118;DHT22;4594;50.994;7.126;2023-02-28T10:04:55;19.00;26.60
9118;DHT22;4594;50.994;7.126;2023-02-28T10:13:03;19.50;27.30
9118;DHT22;4594;50.994;7.126;2023-02-28T10:15:32;19.70;26.70
9118;DHT22;4594;50.994;7.126;2023-02-28T10:18:03;19.80;27.10
9118;DHT22;4594;50.994;7.126;2023-02-28T10:20:36;20.10;27.20
9118;DHT22;4594;50.994;7.126;2023-02-28T10:23:26;20.30;27.10
9118;DHT22;4594;50.994;7.126;2023-02-28T10:26:13;20.40;26.20
9118;DHT22;4594;50.994;7.126;2023-02-28T10:28:42;20.50;26.60
9118;DHT22;4594;50.994;7.126;2023-02-28T10:31:19;20.60;26.70
9118;DHT22;4594;50.994;7.126;2023-02-28T10:33:46;20.70;26.50
9118;DHT22;4594;50.994;7.126;2023-02-28T10:36:18;20.70;26.90
9118;DHT22;4594;50.994;7.126;2023-02-28T10:38:46;20.80;26.60
9118;DHT22;4594;50.994;7.126;2023-02-28T10:41:16;20.80;26.80
9118;DHT22;4594;50.994;7.126;2023-02-28T10:44:12;20.80;26.60
9118;DHT22;4594;50.994;7.126;2023-02-28T10:46:40;20.80;26.40
9118;DHT22;4594;50.994;7.126;2023-02-28T10:49:17;20.70;26.40
9118;DHT22;4594;50.994;7.126;2023-02-28T10:51:49;20.60;25.70
9118;DHT22;4594;50.994;7.126;2023-02-28T10:54:34;20.40;26.00
9118;DHT22;4594;50.994;7.126;2023-02-28T10:57:23;20.00;25.30
9118;DHT22;4594;50.994;7.126;2023-02-28T11:00:12;19.40;24.70
9118;DHT22;4594;50.994;7.126;2023-02-28T11:02:41;18.60;24.10
9118;DHT22;4594;50.994;7.126;2023-02-28T11:05:30;17.80;24.10
9118;DHT22;4594;50.994;7.126;2023-02-28T11:08:14;17.10;23.50
9118;DHT22;4594;50.994;7.126;2023-02-28T11:10:46;16.40;23.60
9118;DHT22;4594;50.994;7.126;2023-02-28T11:13:34;15.80;23.60
9118;DHT22;4594;50.994;7.126;2023-02-28T11:16:06;15.20;23.40
9118;DHT22;4594;50.994;7.126;2023-02-28T11:18:40;14.70;23.30
9118;DHT22;4594;50.994;7.126;2023-02-28T11:21:30;14.20;22.90
9118;DHT22;4594;50.994;7.126;2023-02-28T11:24:29;13.70;22.80
9118;DHT22;4594;50.994;7.126;2023-02-28T11:26:59;13.30;22.70
9118;DHT22;4594;50.994;7.126;2023-02-28T11:29:31;12.80;22.70
9118;DHT22;4594;50.994;7.126;2023-02-28T11:34:29;12.10;22.40
9118;DHT22;4594;50.994;7.126;2023-02-28T11:36:57;11.80;22.40
9118;DHT22;4594;50.994;7.126;2023-02-28T11:39:26;11.40;22.30
9118;DHT22;4594;50.994;7.126;2023-02-28T11:42:37;11.10;22.20
9118;DHT22;4594;50.994;7.126;2023-02-28T11:45:45;10.90;22.10
9118;DHT22;4594;50.994;7.126;2023-02-28T11:48:22;10.60;22.10
9118;DHT22;4594;50.994;7.126;2023-02-28T11:51:05;10.30;22.00
9118;DHT22;4594;50.994;7.126;2023-02-28T11:56:43;10.00;22.10
9118;DHT22;4594;50.994;7.126;2023-02-28T12:14:20;9.20;22.80
9118;DHT22;4594;50.994;7.126;2023-02-28T12:23:25;8.80;22.70
9118;DHT22;4594;50.994;7.126;2023-02-28T12:29:13;8.60;23.00
9118;DHT22;4594;50.994;7.126;2023-02-28T12:31:54;8.60;22.80
9118;DHT22;4594;50.994;7.126;2023-02-28T12:34:52;8.50;22.80
9118;DHT22;4594;50.994;7.126;2023-02-28T12:37:49;8.40;22.80
9118;DHT22;4594;50.994;7.126;2023-02-28T12:40:22;8.30;22.80
9118;DHT22;4594;50.994;7.126;2023-02-28T12:42:56;8.30;22.90
9118;DHT22;4594;50.994;7.126;2023-02-28T12:48:39;8.20;23.00
9118;DHT22;4594;50.994;7.126;2023-02-28T12:51:09;8.20;22.90
9118;DHT22;4594;50.994;7.126;2023-02-28T12:54:21;8.20;22.90
9118;DHT22;4594;50.994;7.126;2023-02-28T12:57:02;8.10;22.90
9118;DHT22;4594;50.994;7.126;2023-02-28T13:11:42;8.00;22.80
9118;DHT22;4594;50.994;7.126;2023-02-28T13:14:30;8.00;22.90
9118;DHT22;4594;50.994;7.126;2023-02-28T13:19:58;7.90;23.00
9118;DHT22;4594;50.994;7.126;2023-02-28T13:24:52;8.00;23.10
9118;DHT22;4594;50.994;7.126;2023-02-28T13:27:39;8.00;23.20
9118;DHT22;4594;50.994;7.126;2023-02-28T13:33:30;8.00;23.20
9118;DHT22;4594;50.994;7.126;2023-02-28T13:36:09;8.10;23.20
9118;DHT22;4594;50.994;7.126;2023-02-28T13:38:43;8.10;23.20
9118;DHT22;4594;50.994;7.126;2023-02-28T13:51:50;8.10;23.30
9118;DHT22;4594;50.994;7.126;2023-02-28T14:00:23;8.20;23.40
9118;DHT22;4594;50.994;7.126;2023-02-28T14:06:16;8.20;23.40
9118;DHT22;4594;50.994;7.126;2023-02-28T14:09:27;8.20;23.30
9118;DHT22;4594;50.994;7.126;2023-02-28T14:11:57;8.20;23.30
9118;DHT22;4594;50.994;7.126;2023-02-28T14:17:16;8.20;23.30
9118;DHT22;4594;50.994;7.126;2023-02-28T14:19:47;8.20;23.30
9118;DHT22;4594;50.994;7.126;2023-02-28T14:22:41;8.20;23.30
9118;DHT22;4594;50.994;7.126;2023-02-28T14:25:38;8.20;23.30
9118;DHT22;4594;50.994;7.126;2023-02-28T14:28:27;8.20;23.30
9118;DHT22;4594;50.994;7.126;2023-02-28T14:31:09;8.30;23.40
9118;DHT22;4594;50.994;7.126;2023-02-28T14:36:43;8.30;23.40
9118;DHT22;4594;50.994;7.126;2023-02-28T14:39:20;8.30;23.40
9118;DHT22;4594;50.994;7.126;2023-02-28T14:41:49;8.30;23.40
9118;DHT22;4594;50.994;7.126;2023-02-28T14:44:21;8.30;23.40
9118;DHT22;4594;50.994;7.126;2023-02-28T14:46:56;8.30;23.40
9118;DHT22;4594;50.994;7.126;2023-02-28T14:49:32;8.20;23.30
9118;DHT22;4594;50.994;7.126;2023-02-28T14:52:19;8.20;23.30
9118;DHT22;4594;50.994;7.126;2023-02-28T14:57:29;8.20;23.30
9118;DHT22;4594;50.994;7.126;2023-02-28T15:00:12;8.20;23.30
9118;DHT22;4594;50.994;7.126;2023-02-28T15:02:42;8.20;23.40
9118;DHT22;4594;50.994;7.126;2023-02-28T15:07:43;8.20;23.40
9118;DHT22;4594;50.994;7.126;2023-02-28T15:10:40;8.20;23.40
9118;DHT22;4594;50.994;7.126;2023-02-28T15:13:13;8.20;23.40
9118;DHT22;4594;50.994;7.126;2023-02-28T15:21:31;8.20;23.50
9118;DHT22;4594;50.994;7.126;2023-02-28T15:26:55;8.20;23.40
9118;DHT22;4594;50.994;7.126;2023-02-28T15:29:27;8.20;23.50
9118;DHT22;4594;50.994;7.126;2023-02-28T15:32:05;8.10;23.50
9118;DHT22;4594;50.994;7.126;2023-02-28T15:34:41;8.20;23.50
9118;DHT22;4594;50.994;7.126;2023-02-28T15:45:56;8.20;23.50
9118;DHT22;4594;50.994;7.126;2023-02-28T15:53:59;8.10;23.50
9118;DHT22;4594;50.994;7.126;2023-02-28T15:56:32;8.10;23.50
9118;DHT22;4594;50.994;7.126;2023-02-28T15:59:03;8.10;23.60
9118;DHT22;4594;50.994;7.126;2023-02-28T16:01:36;8.10;23.50
9118;DHT22;4594;50.994;7.126;2023-02-28T16:04:04;8.10;23.70
9118;DHT22;4594;50.994;7.126;2023-02-28T16:06:44;8.10;23.50
9118;DHT22;4594;50.994;7.126;2023-02-28T16:09:15;8.00;23.40
9118;DHT22;4594;50.994;7.126;2023-02-28T16:11:49;8.10;23.50
9118;DHT22;4594;50.994;7.126;2023-02-28T16:14:23;8.00;23.50
9118;DHT22;4594;50.994;7.126;2023-02-28T16:16:54;8.00;23.50
9118;DHT22;4594;50.994;7.126;2023-02-28T16:19:22;8.00;23.50
9118;DHT22;4594;50.994;7.126;2023-02-28T16:21:49;8.00;23.50
9118;DHT22;4594;50.994;7.126;2023-02-28T16:24:15;8.00;23.50
9118;DHT22;4594;50.994;7.126;2023-02-28T16:26:42;8.00;23.50
9118;DHT22;4594;50.994;7.126;2023-02-28T16:29:23;7.90;23.50
9118;DHT22;4594;50.994;7.126;2023-02-28T16:31:56;7.90;23.50
9118;DHT22;4594;50.994;7.126;2023-02-28T16:34:25;7.90;23.50
9118;DHT22;4594;50.994;7.126;2023-02-28T16:36:51;7.90;23.50
9118;DHT22;4594;50.994;7.126;2023-02-28T16:39:17;7.90;23.50
9118;DHT22;4594;50.994;7.126;2023-02-28T16:41:47;7.90;23.60
9118;DHT22;4594;50.994;7.126;2023-02-28T16:44:31;7.80;23.50
9118;DHT22;4594;50.994;7.126;2023-02-28T16:47:03;7.80;23.60
9118;DHT22;4594;50.994;7.126;2023-02-28T16:49:30;7.80;23.60
9118;DHT22;4594;50.994;7.126;2023-02-28T16:51:56;7.80;23.60
9118;DHT22;4594;50.994;7.126;2023-02-28T16:54:24;7.70;23.50
9118;DHT22;4594;50.994;7.126;2023-02-28T16:56:50;8.00;23.70
9118;DHT22;4594;50.994;7.126;2023-02-28T16:59:22;7.60;23.80
9118;DHT22;4594;50.994;7.126;2023-02-28T17:01:50;7.60;23.60
9118;DHT22;4594;50.994;7.126;2023-02-28T17:04:17;7.50;23.50
9118;DHT22;4594;50.994;7.126;2023-02-28T17:06:46;7.50;23.50
9118;DHT22;4594;50.994;7.126;2023-02-28T17:09:30;7.50;23.60
9118;DHT22;4594;50.994;7.126;2023-02-28T17:11:55;7.40;23.70
9118;DHT22;4594;50.994;7.126;2023-02-28T17:14:22;7.40;23.70
9118;DHT22;4594;50.994;7.126;2023-02-28T17:16:49;7.30;23.70
9118;DHT22;4594;50.994;7.126;2023-02-28T17:19:15;7.30;23.70
9118;DHT22;4594;50.994;7.126;2023-02-28T17:21:43;7.30;23.70
9118;DHT22;4594;50.994;7.126;2023-02-28T17:24:09;7.20;23.60
9118;DHT22;4594;50.994;7.126;2023-02-28T17:26:41;7.10;23.60
9118;DHT22;4594;50.994;7.126;2023-02-28T17:29:18;7.10;23.60
9118;DHT22;4594;50.994;7.126;2023-02-28T17:31:45;7.10;23.60
9118;DHT22;4594;50.994;7.126;2023-02-28T17:34:11;7.00;23.60
9118;DHT22;4594;50.994;7.126;2023-02-28T17:36:44;6.90;23.50
9118;DHT22;4594;50.994;7.126;2023-02-28T17:39:12;6.90;23.60
9118;DHT22;4594;50.994;7.126;2023-02-28T17:41:40;6.80;23.60
9118;DHT22;4594;50.994;7.126;2023-02-28T17:44:07;6.80;23.60
9118;DHT22;4594;50.994;7.126;2023-02-28T17:46:34;6.70;23.50
9118;DHT22;4594;50.994;7.126;2023-02-28T17:49:00;6.70;23.60
9118;DHT22;4594;50.994;7.126;2023-02-28T17:51:26;6.60;23.60
9118;DHT22;4594;50.994;7.126;2023-02-28T17:53:52;6.50;23.60
9118;DHT22;4594;50.994;7.126;2023-02-28T17:56:23;6.50;23.60
9118;DHT22;4594;50.994;7.126;2023-02-28T17:58:51;6.50;23.70
9118;DHT22;4594;50.994;7.126;2023-02-28T18:01:19;6.40;23.60
9118;DHT22;4594;50.994;7.126;2023-02-28T18:03:48;6.30;23.60
9118;DHT22;4594;50.994;7.126;2023-02-28T18:06:19;6.30;23.60
9118;DHT22;4594;50.994;7.126;2023-02-28T18:08:49;6.20;23.60
9118;DHT22;4594;50.994;7.126;2023-02-28T18:11:18;6.20;23.60
9118;DHT22;4594;50.994;7.126;2023-02-28T18:13:46;6.10;23.60
9118;DHT22;4594;50.994;7.126;2023-02-28T18:16:15;6.10;23.70
9118;DHT22;4594;50.994;7.126;2023-02-28T18:18:41;6.00;23.60
9118;DHT22;4594;50.994;7.126;2023-02-28T18:21:09;5.90;23.60
9118;DHT22;4594;50.994;7.126;2023-02-28T18:23:36;5.80;23.60
9118;DHT22;4594;50.994;7.126;2023-02-28T18:26:06;5.80;23.60
9118;DHT22;4594;50.994;7.126;2023-02-28T18:28:33;5.70;23.70
9118;DHT22;4594;50.994;7.126;2023-02-28T18:31:05;5.60;23.70
9118;DHT22;4594;50.994;7.126;2023-02-28T18:33:32;5.50;23.70
9118;DHT22;4594;50.994;7.126;2023-02-28T18:35:58;5.50;23.70
9118;DHT22;4594;50.994;7.126;2023-02-28T18:38:24;5.40;23.70
9118;DHT22;4594;50.994;7.126;2023-02-28T18:40:59;5.30;23.70
9118;DHT22;4594;50.994;7.126;2023-02-28T18:43:28;5.30;23.80
9118;DHT22;4594;50.994;7.126;2023-02-28T18:45:55;5.20;23.70
9118;DHT22;4594;50.994;7.126;2023-02-28T18:48:21;5.10;23.70
9118;DHT22;4594;50.994;7.126;2023-02-28T18:50:51;5.10;23.80
9118;DHT22;4594;50.994;7.126;2023-02-28T18:53:17;5.00;23.80
9118;DHT22;4594;50.994;7.126;2023-02-28T18:55:43;5.00;23.80
9118;DHT22;4594;50.994;7.126;2023-02-28T18:58:09;4.90;23.80
9118;DHT22;4594;50.994;7.126;2023-02-28T19:00:35;4.90;23.90
9118;DHT22;4594;50.994;7.126;2023-02-28T19:03:02;4.80;23.80
9118;DHT22;4594;50.994;7.126;2023-02-28T19:05:28;4.80;23.90
9118;DHT22;4594;50.994;7.126;2023-02-28T19:08:01;4.70;23.90
9118;DHT22;4594;50.994;7.126;2023-02-28T19:10:29;4.70;23.90
9118;DHT22;4594;50.994;7.126;2023-02-28T19:12:55;4.60;23.90
9118;DHT22;4594;50.994;7.126;2023-02-28T19:15:21;4.60;23.90
9118;DHT22;4594;50.994;7.126;2023-02-28T19:17:47;4.50;23.90
9118;DHT22;4594;50.994;7.126;2023-02-28T19:20:13;4.50;24.00
9118;DHT22;4594;50.994;7.126;2023-02-28T19:22:39;4.40;23.90
9118;DHT22;4594;50.994;7.126;2023-02-28T19:25:05;4.40;24.00
9118;DHT22;4594;50.994;7.126;2023-02-28T19:27:31;4.30;24.00
9118;DHT22;4594;50.994;7.126;2023-02-28T19:29:57;4.30;24.00
9118;DHT22;4594;50.994;7.126;2023-02-28T19:32:24;4.20;24.00
9118;DHT22;4594;50.994;7.126;2023-02-28T19:34:50;4.20;24.00
9118;DHT22;4594;50.994;7.126;2023-02-28T19:37:16;4.20;24.10
9118;DHT22;4594;50.994;7.126;2023-02-28T19:39:43;4.20;24.10
9118;DHT22;4594;50.994;7.126;2023-02-28T19:42:15;4.10;24.10
9118;DHT22;4594;50.994;7.126;2023-02-28T19:44:43;4.10;24.20
9118;DHT22;4594;50.994;7.126;2023-02-28T19:47:10;4.00;24.10
9118;DHT22;4594;50.994;7.126;2023-02-28T19:49:36;3.90;24.00